sensor_id;sensor_type;location;lat;lon;timestamp;pressure;altitude;pressure_sealevel;temperature;humidity
21504;BME280;10913;51.992;9.228;2022-07-09T00:01:23;101422.66;;;17.79;100.00
21504;BME280;10913;51.992;9.228;2022-07-09T00:03:48;101428.09;;;17.76;100.00
21504;BME280;10913;51.992;9.228;2022-07-09T00:06:13;101416.59;;;17.71;100.00
21504;BME280;10913;51.992;9.228;2022-07-09T00:08:39;101413.06;;;17.69;100.00
21504;BME280;10913;51.992;9.228;2022-07-09T00:11:04;101412.19;;;17.67;100.00
21504;BME280;10913;51.992;9.228;2022-07-09T00:13:30;101414.91;;;17.65;100.00
21504;BME280;10913;51.992;9.228;2022-07-09T00:15:55;101414.91;;;17.62;100.00
21504;BME280;10913;51.992;9.228;2022-07-09T00:18:20;101410.47;;;17.63;100.00
21504;BME280;10913;51.992;9.228;2022-07-09T00:20:46;101407.81;;;17.61;100.00
21504;BME280;10913;51.992;9.228;2022-07-09T00:23:11;101405.16;;;17.60;100.00
21504;BME280;10913;51.992;9.228;2022-07-09T00:25:37;101411.41;;;17.58;100.00
21504;BME280;10913;51.992;9.228;2022-07-09T00:28:02;101412.34;;;17.58;100.00
21504;BME280;10913;51.992;9.228;2022-07-09T00:30:28;101417.69;;;17.58;100.00
21504;BME280;10913;51.992;9.228;2022-07-09T00:32:53;101407.91;;;17.56;100.00
21504;BME280;10913;51.992;9.228;2022-07-09T00:35:18;101402.56;;;17.56;100.00
21504;BME280;10913;51.992;9.228;2022-07-09T00:37:44;101409.69;;;17.56;100.00
21504;BME280;10913;51.992;9.228;2022-07-09T00:40:10;101407.94;;;17.55;100.00
21504;BME280;10913;51.992;9.228;2022-07-09T00:42:35;101404.38;;;17.54;100.00
21504;BME280;10913;51.992;9.228;2022-07-09T00:45:01;101400.81;;;17.54;100.00
21504;BME280;10913;51.992;9.228;2022-07-09T00:47:26;101397.28;;;17.53;100.00
21504;BME280;10913;51.992;9.228;2022-07-09T00:49:51;101399.06;;;17.53;100.00
21504;BME280;10913;51.992;9.228;2022-07-09T00:52:17;101395.56;;;17.49;100.00
21504;BME280;10913;51.992;9.228;2022-07-09T00:54:44;101385.81;;;17.45;100.00
21504;BME280;10913;51.992;9.228;2022-07-09T00:57:11;101384.09;;;17.41;100.00
21504;BME280;10913;51.992;9.228;2022-07-09T00:59:38;101387.78;;;17.37;100.00
21504;BME280;10913;51.992;9.228;2022-07-09T01:02:06;101382.47;;;17.34;100.00
21504;BME280;10913;51.992;9.228;2022-07-09T01:04:32;101382.47;;;17.34;100.00
21504;BME280;10913;51.992;9.228;2022-07-09T01:06:57;101378.91;;;17.35;100.00
21504;BME280;10913;51.992;9.228;2022-07-09T01:09:27;101381.53;;;17.37;100.00
21504;BME280;10913;51.992;9.228;2022-07-09T01:11:52;101385.03;;;17.39;100.00
21504;BME280;10913;51.992;9.228;2022-07-09T01:14:18;101386.81;;;17.40;100.00
21504;BME280;10913;51.992;9.228;2022-07-09T01:16:44;101387.66;;;17.42;100.00
21504;BME280;10913;51.992;9.228;2022-07-09T01:19:09;101388.53;;;17.42;100.00
21504;BME280;10913;51.992;9.228;2022-07-09T01:21:34;101391.22;;;17.42;100.00
21504;BME280;10913;51.992;9.228;2022-07-09T01:24:00;101385.88;;;17.42;100.00
21504;BME280;10913;51.992;9.228;2022-07-09T01:26:26;101381.44;;;17.41;100.00
21504;BME280;10913;51.992;9.228;2022-07-09T01:28:53;101377.00;;;17.40;100.00
21504;BME280;10913;51.992;9.228;2022-07-09T01:31:18;101382.34;;;17.40;100.00
21504;BME280;10913;51.992;9.228;2022-07-09T01:33:44;101378.75;;;17.41;100.00
21504;BME280;10913;51.992;9.228;2022-07-09T01:36:10;101371.59;;;17.43;100.00
21504;BME280;10913;51.992;9.228;2022-07-09T01:38:36;101368.91;;;17.45;100.00
21504;BME280;10913;51.992;9.228;2022-07-09T01:41:02;101379.56;;;17.46;100.00
21504;BME280;10913;51.992;9.228;2022-07-09T01:43:28;101368.88;;;17.46;100.00
21504;BME280;10913;51.992;9.228;2022-07-09T01:45:53;101358.22;;;17.45;100.00
21504;BME280;10913;51.992;9.228;2022-07-09T01:48:19;101362.69;;;17.44;100.00
21504;BME280;10913;51.992;9.228;2022-07-09T01:50:44;101365.38;;;17.43;100.00
21504;BME280;10913;51.992;9.228;2022-07-09T01:53:10;101359.19;;;17.41;100.00
21504;BME280;10913;51.992;9.228;2022-07-09T01:55:35;101350.28;;;17.40;100.00
21504;BME280;10913;51.992;9.228;2022-07-09T01:58:01;101351.19;;;17.39;100.00
21504;BME280;10913;51.992;9.228;2022-07-09T02:00:27;101346.72;;;17.40;100.00
21504;BME280;10913;51.992;9.228;2022-07-09T02:02:55;101346.69;;;17.41;100.00
21504;BME280;10913;51.992;9.228;2022-07-09T02:05:21;101340.47;;;17.42;100.00
21504;BME280;10913;51.992;9.228;2022-07-09T02:07:47;101332.44;;;17.42;100.00
21504;BME280;10913;51.992;9.228;2022-07-09T02:10:13;101331.56;;;17.42;100.00
21504;BME280;10913;51.992;9.228;2022-07-09T02:12:39;101334.22;;;17.42;100.00
21504;BME280;10913;51.992;9.228;2022-07-09T02:15:05;101337.78;;;17.42;100.00
21504;BME280;10913;51.992;9.228;2022-07-09T02:17:32;101338.66;;;17.43;100.00
21504;BME280;10913;51.992;9.228;2022-07-09T02:19:57;101338.66;;;17.43;100.00
21504;BME280;10913;51.992;9.228;2022-07-09T02:22:23;101336.91;;;17.42;100.00
21504;BME280;10913;51.992;9.228;2022-07-09T02:24:48;101332.50;;;17.39;100.00
21504;BME280;10913;51.992;9.228;2022-07-09T02:27:13;101326.31;;;17.37;100.00
21504;BME280;10913;51.992;9.228;2022-07-09T02:29:39;101322.78;;;17.37;100.00
21504;BME280;10913;51.992;9.228;2022-07-09T02:32:04;101322.78;;;17.35;100.00
21504;BME280;10913;51.992;9.228;2022-07-09T02:34:30;101325.47;;;17.35;100.00
21504;BME280;10913;51.992;9.228;2022-07-09T02:36:55;101318.31;;;17.37;100.00
21504;BME280;10913;51.992;9.228;2022-07-09T02:39:21;101305.78;;;17.39;100.00
21504;BME280;10913;51.992;9.228;2022-07-09T02:41:46;101308.56;;;17.35;100.00
21504;BME280;10913;51.992;9.228;2022-07-09T02:44:12;101316.59;;;17.33;100.00
21504;BME280;10913;51.992;9.228;2022-07-09T02:46:37;101316.59;;;17.33;100.00
21504;BME280;10913;51.992;9.228;2022-07-09T02:49:03;101317.44;;;17.35;100.00
21504;BME280;10913;51.992;9.228;2022-07-09T02:51:29;101321.88;;;17.38;100.00
21504;BME280;10913;51.992;9.228;2022-07-09T02:53:54;101309.38;;;17.38;100.00
21504;BME280;10913;51.992;9.228;2022-07-09T02:56:19;101311.13;;;17.39;100.00
21504;BME280;10913;51.992;9.228;2022-07-09T02:58:45;101307.53;;;17.40;100.00
21504;BME280;10913;51.992;9.228;2022-07-09T03:01:10;101318.22;;;17.40;100.00
21504;BME280;10913;51.992;9.228;2022-07-09T03:03:36;101318.22;;;17.40;100.00
21504;BME280;10913;51.992;9.228;2022-07-09T03:06:02;101310.19;;;17.42;100.00
21504;BME280;10913;51.992;9.228;2022-07-09T03:08:28;101311.09;;;17.41;100.00
21504;BME280;10913;51.992;9.228;2022-07-09T03:10:53;101313.75;;;17.41;100.00
21504;BME280;10913;51.992;9.228;2022-07-09T03:13:19;101310.22;;;17.40;100.00
21504;BME280;10913;51.992;9.228;2022-07-09T03:15:44;101311.97;;;17.41;100.00
21504;BME280;10913;51.992;9.228;2022-07-09T03:18:09;101310.19;;;17.42;100.00
21504;BME280;10913;51.992;9.228;2022-07-09T03:20:35;101312.81;;;17.43;100.00
21504;BME280;10913;51.992;9.228;2022-07-09T03:23:02;101306.59;;;17.43;100.00
21504;BME280;10913;51.992;9.228;2022-07-09T03:25:28;101308.44;;;17.39;100.00
21504;BME280;10913;51.992;9.228;2022-07-09T03:27:53;101310.31;;;17.36;100.00
21504;BME280;10913;51.992;9.228;2022-07-09T03:30:19;101305.91;;;17.33;100.00
21504;BME280;10913;51.992;9.228;2022-07-09T03:32:45;101312.13;;;17.34;100.00
21504;BME280;10913;51.992;9.228;2022-07-09T03:35:10;101309.44;;;17.35;100.00
21504;BME280;10913;51.992;9.228;2022-07-09T03:37:36;101301.38;;;17.38;100.00
21504;BME280;10913;51.992;9.228;2022-07-09T03:40:02;101303.09;;;17.39;100.00
21504;BME280;10913;51.992;9.228;2022-07-09T03:42:27;101305.72;;;17.42;100.00
21504;BME280;10913;51.992;9.228;2022-07-09T03:44:53;101308.38;;;17.44;100.00
21504;BME280;10913;51.992;9.228;2022-07-09T03:47:18;101300.31;;;17.45;100.00
21504;BME280;10913;51.992;9.228;2022-07-09T03:49:44;101300.31;;;17.45;100.00
21504;BME280;10913;51.992;9.228;2022-07-09T03:52:09;101306.56;;;17.46;100.00
21504;BME280;10913;51.992;9.228;2022-07-09T03:54:34;101298.56;;;17.44;100.00
21504;BME280;10913;51.992;9.228;2022-07-09T03:57:00;101301.22;;;17.46;100.00
21504;BME280;10913;51.992;9.228;2022-07-09T03:59:25;101302.97;;;17.47;100.00
21504;BME280;10913;51.992;9.228;2022-07-09T04:01:51;101300.31;;;17.45;100.00
21504;BME280;10913;51.992;9.228;2022-07-09T04:04:35;101302.16;;;17.42;100.00
21504;BME280;10913;51.992;9.228;2022-07-09T04:13:52;101292.38;;;17.41;100.00
21504;BME280;10913;51.992;9.228;2022-07-09T04:17:01;101299.44;;;17.45;100.00
21504;BME280;10913;51.992;9.228;2022-07-09T04:23:04;101296.63;;;17.52;100.00
21504;BME280;10913;51.992;9.228;2022-07-09T04:25:50;101297.47;;;17.56;100.00
21504;BME280;10913;51.992;9.228;2022-07-09T04:31:16;101290.34;;;17.55;100.00
21504;BME280;10913;51.992;9.228;2022-07-09T04:33:53;101294.84;;;17.53;100.00
21504;BME280;10913;51.992;9.228;2022-07-09T04:36:18;101293.97;;;17.52;100.00
21504;BME280;10913;51.992;9.228;2022-07-09T04:38:52;101291.28;;;17.54;100.00
21504;BME280;10913;51.992;9.228;2022-07-09T04:41:50;101291.16;;;17.58;100.00
21504;BME280;10913;51.992;9.228;2022-07-09T04:44:16;101295.53;;;17.63;100.00
21504;BME280;10913;51.992;9.228;2022-07-09T04:46:42;101292.78;;;17.69;100.00
21504;BME280;10913;51.992;9.228;2022-07-09T04:49:09;101285.56;;;17.74;100.00
21504;BME280;10913;51.992;9.228;2022-07-09T04:51:34;101280.16;;;17.77;100.00
21504;BME280;10913;51.992;9.228;2022-07-09T04:54:00;101283.66;;;17.79;100.00
21504;BME280;10913;51.992;9.228;2022-07-09T04:56:25;101282.72;;;17.81;100.00
21504;BME280;10913;51.992;9.228;2022-07-09T04:58:50;101282.63;;;17.86;100.00
21504;BME280;10913;51.992;9.228;2022-07-09T05:01:22;101287.03;;;17.88;100.00
21504;BME280;10913;51.992;9.228;2022-07-09T05:03:48;101288.81;;;17.88;100.00
21504;BME280;10913;51.992;9.228;2022-07-09T05:06:18;101288.75;;;17.91;100.00
21504;BME280;10913;51.992;9.228;2022-07-09T05:08:44;101281.53;;;17.96;100.00
21504;BME280;10913;51.992;9.228;2022-07-09T05:11:10;101281.44;;;17.99;100.00
21504;BME280;10913;51.992;9.228;2022-07-09T05:13:36;101287.59;;;18.03;100.00
21504;BME280;10913;51.992;9.228;2022-07-09T05:16:03;101277.72;;;18.06;100.00
21504;BME280;10913;51.992;9.228;2022-07-09T05:18:28;101277.59;;;18.12;100.00
21504;BME280;10913;51.992;9.228;2022-07-09T05:20:56;101274.88;;;18.15;100.00
21504;BME280;10913;51.992;9.228;2022-07-09T05:23:21;101275.75;;;18.16;100.00
21504;BME280;10913;51.992;9.228;2022-07-09T05:25:47;101275.72;;;18.17;100.00
21504;BME280;10913;51.992;9.228;2022-07-09T05:28:12;101279.22;;;18.19;100.00
21504;BME280;10913;51.992;9.228;2022-07-09T05:30:37;101283.66;;;18.19;100.00
21504;BME280;10913;51.992;9.228;2022-07-09T05:33:04;101283.66;;;18.19;100.00
21504;BME280;10913;51.992;9.228;2022-07-09T05:35:29;101285.41;;;18.21;100.00
21504;BME280;10913;51.992;9.228;2022-07-09T05:37:55;101283.53;;;18.25;100.00
21504;BME280;10913;51.992;9.228;2022-07-09T05:40:20;101283.47;;;18.28;100.00
21504;BME280;10913;51.992;9.228;2022-07-09T05:42:46;101279.84;;;18.32;100.00
21504;BME280;10913;51.992;9.228;2022-07-09T05:45:12;101280.66;;;18.36;100.00
21504;BME280;10913;51.992;9.228;2022-07-09T05:47:37;101279.69;;;18.38;100.00
21504;BME280;10913;51.992;9.228;2022-07-09T05:50:03;101284.00;;;18.44;100.00
21504;BME280;10913;51.992;9.228;2022-07-09T05:52:28;101285.69;;;18.48;100.00
21504;BME280;10913;51.992;9.228;2022-07-09T05:54:54;101285.63;;;18.51;100.00
21504;BME280;10913;51.992;9.228;2022-07-09T05:57:19;101289.16;;;18.53;100.00
21504;BME280;10913;51.992;9.228;2022-07-09T05:59:44;101289.16;;;18.53;100.00
21504;BME280;10913;51.992;9.228;2022-07-09T06:02:10;101292.75;;;18.52;100.00
21504;BME280;10913;51.992;9.228;2022-07-09T06:04:35;101293.63;;;18.52;100.00
21504;BME280;10913;51.992;9.228;2022-07-09T06:07:00;101298.09;;;18.52;100.00
21504;BME280;10913;51.992;9.228;2022-07-09T06:09:26;101293.66;;;18.51;100.00
21504;BME280;10913;51.992;9.228;2022-07-09T06:11:51;101289.22;;;18.50;100.00
21504;BME280;10913;51.992;9.228;2022-07-09T06:14:17;101299.00;;;18.51;100.00
21504;BME280;10913;51.992;9.228;2022-07-09T06:16:44;101299.00;;;18.51;100.00
21504;BME280;10913;51.992;9.228;2022-07-09T06:19:12;101302.63;;;18.48;100.00
21504;BME280;10913;51.992;9.228;2022-07-09T06:21:38;101296.34;;;18.51;100.00
21504;BME280;10913;51.992;9.228;2022-07-09T06:24:03;101303.53;;;18.49;100.00
21504;BME280;10913;51.992;9.228;2022-07-09T06:26:28;101306.22;;;18.47;100.00
21504;BME280;10913;51.992;9.228;2022-07-09T06:28:55;101299.16;;;18.45;100.00
21504;BME280;10913;51.992;9.228;2022-07-09T06:31:21;101299.16;;;18.45;100.00
21504;BME280;10913;51.992;9.228;2022-07-09T06:33:46;101290.19;;;18.46;100.00
21504;BME280;10913;51.992;9.228;2022-07-09T06:36:11;101280.34;;;18.48;100.00
21504;BME280;10913;51.992;9.228;2022-07-09T06:38:37;101289.25;;;18.48;100.00
21504;BME280;10913;51.992;9.228;2022-07-09T06:41:22;101287.41;;;18.52;100.00
21504;BME280;10913;51.992;9.228;2022-07-09T06:43:48;101292.66;;;18.56;100.00
21504;BME280;10913;51.992;9.228;2022-07-09T06:46:13;101291.59;;;18.64;100.00
21504;BME280;10913;51.992;9.228;2022-07-09T06:48:38;101297.69;;;18.70;100.00
21504;BME280;10913;51.992;9.228;2022-07-09T06:51:04;101287.75;;;18.75;100.00
21504;BME280;10913;51.992;9.228;2022-07-09T06:53:29;101290.19;;;18.84;100.00
21504;BME280;10913;51.992;9.228;2022-07-09T06:55:55;101293.56;;;18.92;100.00
21504;BME280;10913;51.992;9.228;2022-07-09T06:58:20;101289.72;;;19.03;100.00
21504;BME280;10913;51.992;9.228;2022-07-09T07:00:48;101289.56;;;19.09;100.00
21504;BME280;10913;51.992;9.228;2022-07-09T07:03:14;101285.88;;;19.14;100.00
21504;BME280;10913;51.992;9.228;2022-07-09T07:05:40;101286.72;;;19.16;100.00
21504;BME280;10913;51.992;9.228;2022-07-09T07:08:05;101282.94;;;19.23;100.00
21504;BME280;10913;51.992;9.228;2022-07-09T07:10:31;101277.03;;;19.43;100.00
21504;BME280;10913;51.992;9.228;2022-07-09T07:12:56;101270.25;;;19.63;100.00
21504;BME280;10913;51.992;9.228;2022-07-09T07:15:21;101273.53;;;19.74;99.90
21504;BME280;10913;51.992;9.228;2022-07-09T07:17:47;101276.59;;;19.91;100.00
21504;BME280;10913;51.992;9.228;2022-07-09T07:20:13;101272.69;;;20.01;99.29
21504;BME280;10913;51.992;9.228;2022-07-09T07:22:39;101270.72;;;20.08;98.34
21504;BME280;10913;51.992;9.228;2022-07-09T07:25:05;101277.97;;;20.04;97.31
21504;BME280;10913;51.992;9.228;2022-07-09T07:27:30;101268.53;;;20.20;97.57
21504;BME280;10913;51.992;9.228;2022-07-09T07:29:56;101270.81;;;20.34;97.12
21504;BME280;10913;51.992;9.228;2022-07-09T07:32:21;101272.44;;;20.40;96.42
21504;BME280;10913;51.992;9.228;2022-07-09T07:34:46;101271.69;;;20.35;96.08
21504;BME280;10913;51.992;9.228;2022-07-09T07:37:12;101277.34;;;20.25;95.25
21504;BME280;10913;51.992;9.228;2022-07-09T07:39:37;101265.00;;;20.18;95.45
21504;BME280;10913;51.992;9.228;2022-07-09T07:42:03;101263.28;;;20.17;95.44
21504;BME280;10913;51.992;9.228;2022-07-09T07:44:28;101271.09;;;20.25;95.05
21504;BME280;10913;51.992;9.228;2022-07-09T07:46:54;101262.69;;;20.37;94.46
21504;BME280;10913;51.992;9.228;2022-07-09T07:49:19;101264.00;;;20.52;93.75
21504;BME280;10913;51.992;9.228;2022-07-09T07:51:45;101262.19;;;20.79;93.95
21504;BME280;10913;51.992;9.228;2022-07-09T07:54:10;101271.25;;;21.03;93.19
21504;BME280;10913;51.992;9.228;2022-07-09T07:56:36;101256.06;;;21.28;92.68
21504;BME280;10913;51.992;9.228;2022-07-09T07:59:03;101257.59;;;21.35;90.49
21504;BME280;10913;51.992;9.228;2022-07-09T08:01:29;101264.84;;;21.33;90.28
21504;BME280;10913;51.992;9.228;2022-07-09T08:03:55;101260.09;;;21.40;91.08
21504;BME280;10913;51.992;9.228;2022-07-09T08:06:20;101255.66;;;21.63;89.27
21504;BME280;10913;51.992;9.228;2022-07-09T08:08:47;101265.28;;;21.94;87.67
21504;BME280;10913;51.992;9.228;2022-07-09T08:11:13;101258.53;;;22.29;85.92
21504;BME280;10913;51.992;9.228;2022-07-09T08:13:38;101256.41;;;22.59;84.53
21504;BME280;10913;51.992;9.228;2022-07-09T08:16:05;101251.41;;;22.72;83.25
21504;BME280;10913;51.992;9.228;2022-07-09T08:18:30;101240.56;;;22.73;83.42
21504;BME280;10913;51.992;9.228;2022-07-09T08:20:56;101249.78;;;22.89;83.29
21504;BME280;10913;51.992;9.228;2022-07-09T08:23:21;101242.25;;;22.97;82.53
21504;BME280;10913;51.992;9.228;2022-07-09T08:25:47;101234.56;;;23.09;81.53
21504;BME280;10913;51.992;9.228;2022-07-09T08:28:12;101241.31;;;23.19;81.71
21504;BME280;10913;51.992;9.228;2022-07-09T08:30:38;101241.97;;;23.24;81.21
21504;BME280;10913;51.992;9.228;2022-07-09T08:33:03;101237.81;;;23.17;81.57
21504;BME280;10913;51.992;9.228;2022-07-09T08:35:28;101233.06;;;23.01;82.46
21504;BME280;10913;51.992;9.228;2022-07-09T08:37:54;101225.53;;;22.89;83.04
21504;BME280;10913;51.992;9.228;2022-07-09T08:40:20;101227.59;;;22.83;82.63
21504;BME280;10913;51.992;9.228;2022-07-09T08:42:47;101226.47;;;22.66;81.40
21504;BME280;10913;51.992;9.228;2022-07-09T08:45:14;101234.94;;;22.57;81.20
21504;BME280;10913;51.992;9.228;2022-07-09T08:47:41;101241.50;;;22.28;82.38
21504;BME280;10913;51.992;9.228;2022-07-09T08:50:08;101232.22;;;22.14;83.70
21504;BME280;10913;51.992;9.228;2022-07-09T08:52:35;101230.97;;;21.99;83.94
21504;BME280;10913;51.992;9.228;2022-07-09T08:55:01;101237.47;;;21.93;84.15
21504;BME280;10913;51.992;9.228;2022-07-09T08:57:27;101231.06;;;21.97;84.82
21504;BME280;10913;51.992;9.228;2022-07-09T08:59:52;101227.97;;;22.08;84.85
21504;BME280;10913;51.992;9.228;2022-07-09T09:02:17;101229.44;;;22.17;84.79
21504;BME280;10913;51.992;9.228;2022-07-09T09:04:45;101229.47;;;22.15;83.99
21504;BME280;10913;51.992;9.228;2022-07-09T09:07:15;101226.31;;;22.04;83.82
21504;BME280;10913;51.992;9.228;2022-07-09T09:09:41;101218.66;;;21.93;83.80
21504;BME280;10913;51.992;9.228;2022-07-09T09:12:07;101230.63;;;21.85;83.79
21504;BME280;10913;51.992;9.228;2022-07-09T09:14:32;101222.00;;;21.77;84.33
21504;BME280;10913;51.992;9.228;2022-07-09T09:17:08;101216.84;;;21.71;84.79
21504;BME280;10913;51.992;9.228;2022-07-09T09:19:38;101219.81;;;21.63;85.21
21504;BME280;10913;51.992;9.228;2022-07-09T09:22:04;101221.66;;;21.61;85.13
21504;BME280;10913;51.992;9.228;2022-07-09T09:24:29;101215.41;;;21.60;85.25
21504;BME280;10913;51.992;9.228;2022-07-09T09:26:58;101223.44;;;21.62;85.35
21504;BME280;10913;51.992;9.228;2022-07-09T09:29:25;101220.75;;;21.62;85.38
21504;BME280;10913;51.992;9.228;2022-07-09T09:31:54;101219.81;;;21.63;85.05
21504;BME280;10913;51.992;9.228;2022-07-09T09:34:21;101216.28;;;21.61;84.97
21504;BME280;10913;51.992;9.228;2022-07-09T09:36:48;101217.41;;;21.55;84.72
21504;BME280;10913;51.992;9.228;2022-07-09T09:39:27;101215.41;;;21.60;84.71
21504;BME280;10913;51.992;9.228;2022-07-09T09:41:53;101214.38;;;21.64;85.10
21504;BME280;10913;51.992;9.228;2022-07-09T09:44:26;101208.88;;;21.67;84.74
21504;BME280;10913;51.992;9.228;2022-07-09T09:46:54;101210.63;;;21.69;84.64
21504;BME280;10913;51.992;9.228;2022-07-09T09:49:20;101210.69;;;21.67;84.19
21504;BME280;10913;51.992;9.228;2022-07-09T09:52:04;101205.59;;;21.59;84.00
21504;BME280;10913;51.992;9.228;2022-07-09T09:54:40;101211.16;;;21.55;84.71
21504;BME280;10913;51.992;9.228;2022-07-09T09:57:11;101219.19;;;21.56;85.59
21504;BME280;10913;51.992;9.228;2022-07-09T09:59:43;101211.84;;;21.60;85.29
21504;BME280;10913;51.992;9.228;2022-07-09T10:02:12;101207.94;;;21.69;85.50
21504;BME280;10913;51.992;9.228;2022-07-09T10:04:43;101213.16;;;21.73;84.90
21504;BME280;10913;51.992;9.228;2022-07-09T10:07:11;101209.97;;;21.85;84.29
21504;BME280;10913;51.992;9.228;2022-07-09T10:09:37;101203.38;;;21.94;84.25
21504;BME280;10913;51.992;9.228;2022-07-09T10:12:03;101210.50;;;21.95;84.47
21504;BME280;10913;51.992;9.228;2022-07-09T10:14:36;101220.03;;;21.80;84.70
21504;BME280;10913;51.992;9.228;2022-07-09T10:17:15;101206.19;;;21.67;86.22
21504;BME280;10913;51.992;9.228;2022-07-09T10:19:57;101204.91;;;21.54;87.59
21504;BME280;10913;51.992;9.228;2022-07-09T10:22:37;101209.69;;;21.46;88.20
21504;BME280;10913;51.992;9.228;2022-07-09T10:25:04;101200.16;;;21.38;89.54
21504;BME280;10913;51.992;9.228;2022-07-09T10:27:43;101198.56;;;21.32;90.04
21504;BME280;10913;51.992;9.228;2022-07-09T10:30:26;101196.31;;;21.20;91.46
21504;BME280;10913;51.992;9.228;2022-07-09T10:35:26;101197.56;;;21.10;91.80
21504;BME280;10913;51.992;9.228;2022-07-09T10:37:53;101201.13;;;21.10;92.23
21504;BME280;10913;51.992;9.228;2022-07-09T10:40:20;101208.09;;;21.16;93.12
21504;BME280;10913;51.992;9.228;2022-07-09T10:43:00;101205.09;;;21.25;92.47
21504;BME280;10913;51.992;9.228;2022-07-09T10:45:44;101203.59;;;21.41;93.50
21504;BME280;10913;51.992;9.228;2022-07-09T10:48:13;101192.09;;;21.61;92.88
21504;BME280;10913;51.992;9.228;2022-07-09T10:50:45;101181.19;;;21.87;91.11
21504;BME280;10913;51.992;9.228;2022-07-09T10:53:13;101172.13;;;22.13;90.27
21504;BME280;10913;51.992;9.228;2022-07-09T10:55:42;101171.13;;;22.38;90.27
21504;BME280;10913;51.992;9.228;2022-07-09T10:58:21;101176.88;;;22.50;88.56
21504;BME280;10913;51.992;9.228;2022-07-09T11:00:59;101170.78;;;22.45;87.26
21504;BME280;10913;51.992;9.228;2022-07-09T11:03:27;101165.94;;;22.33;88.64
21504;BME280;10913;51.992;9.228;2022-07-09T11:05:52;101187.22;;;22.17;89.82
21504;BME280;10913;51.992;9.228;2022-07-09T11:08:18;101182.66;;;21.96;89.40
21504;BME280;10913;51.992;9.228;2022-07-09T11:10:44;101185.13;;;22.02;90.12
21504;BME280;10913;51.992;9.228;2022-07-09T11:13:09;101180.50;;;22.27;90.85
21504;BME280;10913;51.992;9.228;2022-07-09T11:15:35;101179.38;;;22.55;89.73
21504;BME280;10913;51.992;9.228;2022-07-09T11:18:06;101170.00;;;22.85;91.20
21504;BME280;10913;51.992;9.228;2022-07-09T11:20:39;101157.19;;;23.11;88.81
21504;BME280;10913;51.992;9.228;2022-07-09T11:23:05;101164.25;;;23.33;87.56
21504;BME280;10913;51.992;9.228;2022-07-09T11:25:31;101156.81;;;23.38;85.11
21504;BME280;10913;51.992;9.228;2022-07-09T11:27:59;101164.69;;;23.43;84.82
21504;BME280;10913;51.992;9.228;2022-07-09T11:30:26;101154.03;;;23.40;83.61
21504;BME280;10913;51.992;9.228;2022-07-09T11:32:52;101149.31;;;23.45;83.94
21504;BME280;10913;51.992;9.228;2022-07-09T11:35:32;101141.34;;;23.42;84.03
21504;BME280;10913;51.992;9.228;2022-07-09T11:37:59;101145.38;;;23.33;82.95
21504;BME280;10913;51.992;9.228;2022-07-09T11:40:26;101140.19;;;23.29;82.67
21504;BME280;10913;51.992;9.228;2022-07-09T11:42:51;101142.34;;;23.21;83.44
21504;BME280;10913;51.992;9.228;2022-07-09T11:45:27;101140.75;;;23.17;82.69
21504;BME280;10913;51.992;9.228;2022-07-09T11:48:06;101145.69;;;23.07;81.96
21504;BME280;10913;51.992;9.228;2022-07-09T11:50:33;101148.88;;;22.96;81.43
21504;BME280;10913;51.992;9.228;2022-07-09T11:53:06;101132.34;;;22.84;81.41
21504;BME280;10913;51.992;9.228;2022-07-09T11:55:32;101136.38;;;22.74;81.15
21504;BME280;10913;51.992;9.228;2022-07-09T11:57:59;101133.19;;;22.64;81.31
21504;BME280;10913;51.992;9.228;2022-07-09T12:00:33;101133.53;;;22.56;81.55
21504;BME280;10913;51.992;9.228;2022-07-09T12:02:59;101136.53;;;22.49;82.00
21504;BME280;10913;51.992;9.228;2022-07-09T12:05:31;101124.38;;;22.39;81.70
21504;BME280;10913;51.992;9.228;2022-07-09T12:08:03;101131.00;;;22.31;81.53
21504;BME280;10913;51.992;9.228;2022-07-09T12:10:32;101121.91;;;22.34;82.03
21504;BME280;10913;51.992;9.228;2022-07-09T12:12:58;101121.78;;;22.37;82.60
21504;BME280;10913;51.992;9.228;2022-07-09T12:15:24;101115.25;;;22.43;81.50
21504;BME280;10913;51.992;9.228;2022-07-09T12:17:54;101116.00;;;22.46;81.21
21504;BME280;10913;51.992;9.228;2022-07-09T12:20:21;101105.22;;;22.46;81.16
21504;BME280;10913;51.992;9.228;2022-07-09T12:22:47;101106.09;;;22.47;80.79
21504;BME280;10913;51.992;9.228;2022-07-09T12:25:12;101105.34;;;22.43;80.88
21504;BME280;10913;51.992;9.228;2022-07-09T12:27:39;101111.00;;;22.37;80.62
21504;BME280;10913;51.992;9.228;2022-07-09T12:30:07;101099.50;;;22.33;80.67
21504;BME280;10913;51.992;9.228;2022-07-09T12:32:33;101104.31;;;22.25;80.02
21504;BME280;10913;51.992;9.228;2022-07-09T12:35:00;101099.88;;;22.24;80.01
21504;BME280;10913;51.992;9.228;2022-07-09T12:37:25;101093.53;;;22.25;80.37
21504;BME280;10913;51.992;9.228;2022-07-09T12:39:50;101092.81;;;22.42;80.16
21504;BME280;10913;51.992;9.228;2022-07-09T12:42:18;101082.13;;;22.61;80.44
21504;BME280;10913;51.992;9.228;2022-07-09T12:44:44;101077.97;;;22.74;78.37
21504;BME280;10913;51.992;9.228;2022-07-09T12:47:09;101091.44;;;22.94;78.55
21504;BME280;10913;51.992;9.228;2022-07-09T12:49:35;101081.44;;;23.17;77.47
21504;BME280;10913;51.992;9.228;2022-07-09T12:52:00;101084.63;;;23.25;75.95
21504;BME280;10913;51.992;9.228;2022-07-09T12:54:26;101078.22;;;23.09;74.81
21504;BME280;10913;51.992;9.228;2022-07-09T12:56:51;101072.75;;;23.10;74.04
21504;BME280;10913;51.992;9.228;2022-07-09T12:59:17;101076.03;;;23.17;73.80
21504;BME280;10913;51.992;9.228;2022-07-09T13:01:43;101080.50;;;23.18;74.28